Hurlburt Field
KHRT : now visible

Airfield :











YOU CAN JOIN US ON...

 
LOGIN :

Register | Disclaimer

   EN    FR    IT 

 









Legend :    VFR   Marginal VFR   IFR   Intensive IFR   Very Intensive IFR
Visi :
Ceiling :
>= 8 km
>= 3000ft
5 to 8 km
1000 to 3000 ft
1500m to 5 km
500 to 1000 ft
800 to 1500m
200 to 500 ft
< 800m
< 200 ft
Symbols :   Thunderstorms  Fog  Heavy snow  Heavy precipitations  Wind > 20 kt






- Airport Elevation : 38 ft


KHRT - Hurlburt Field

CURRENT METAR :
  • 101856Z 19008KT 10SM SCT100 BKN220 19/16 A2978 RMK AO2A SLP086 T01860164 $

EXPIRED METARs :
  • 101756Z 19021G28KT 10SM FEW025 SCT140 SCT160 17/16 A2975 RMK AO2A PK WND 15030/32 LTG DSNT SW RAE39DZB39E44 TSE1657 PRESRR SLP076 P0005 60178 T01740159 10179 20140 58028 $
  • 101744Z 17022G29KT 10SM SCT039 BKN140 17/16 A2969 RMK AO2A LTG DSNT SW RAE39DZB39E44 TSE1657 PRESFR SLP056 $
  • 101718Z COR 17022G29KT 8SM -RA OVC060 17/16 A2975 RMK AO2A TSE1657 PRESFR SLP076 58021 $ COR 1722
  • 101657Z 17013KT 9SM -RA OVC060 17/16 A2982 RMK AO2A TSE57 SLP100 $
  • 101641Z 17018G22KT 8SM -TSRA OVC065 17/15 A2981 RMK TSE06TSB11E26B40 SLP096 $
  • 101634Z 18010G22KT 9SM -RA OVC065 17/15 A2981 RMK AO2A WSHFT 27 LTG DSNT NW TSE06TSB11E26 SLP096 $

TAF TAF KHRT
Valid from the 10 at 18:00 until the 12 at 00:00 UTC


101800Z 1018/1200 18012G22KT 8000 -SHRA SCT015 OVC060 QNH3000INS
TEMPO 1018/1019 18025G30KT
BECMG 1020/1021 23012G18KT 9999 NSW SCT015 OVC080 QNH3000INS
BECMG 1106/1107 27012KT 6000 SHRA BKN008 OVC050 QNH2967INS
BECMG 1112/1113 34009KT 9999 NSW SCT015 BKN085 QNH2973INS TX19/1021Z TN14/1112Z
KZJX FIR / North America



MET'MAP, your aeronautical weather chart ! - Copyright ORBIFLY December 2007 - Disclaimer

ORBIFLY MET'MAP TEAM :

Programming & Development : Alexandra Zaïnal
Concept & original design : Baudouin d'Aumeries
Assistance for programming : Marc-Olivier Méhu
Technical & hardware support : Manuel Goepfert

Contact : metmap@orbifly.com




SOURCES & CREDITS :

   NOAA       Earth
Advisory